Time;durP1;ratioP1;P1;durP2;ratioP2;P2;SDS_P1;SDS_P2;PMS_P1;PMS_P2;Temp;Humidity;BMP_temperature;BMP_pressure;BME280_temperature;BME280_humidity;BME280_pressure;Samples;Min_cycle;Max_cycle;Signal;HPM_P1;HPM_P2
2021/07/26 00:00:42;;;;;;;3.83;1.90;;;22.00;83.30;;;;;;5053530;28;20028;-76
2021/07/26 00:03:08;;;;;;;4.35;2.10;;;21.90;83.70;;;;;;5052812;28;20033;-76
2021/07/26 00:05:33;;;;;;;3.55;2.00;;;21.90;83.80;;;;;;5052697;28;20037;-76
2021/07/26 00:07:59;;;;;;;3.38;1.67;;;21.90;84.00;;;;;;5052161;28;20374;-75
2021/07/26 00:10:25;;;;;;;4.05;2.40;;;21.90;84.10;;;;;;5052641;28;20028;-76
2021/07/26 00:12:50;;;;;;;2.85;2.13;;;21.90;84.10;;;;;;5051606;28;20092;-76
2021/07/26 00:15:16;;;;;;;2.20;1.83;;;21.90;84.20;;;;;;5052496;28;20025;-77
2021/07/26 00:17:41;;;;;;;5.10;2.25;;;21.90;84.20;;;;;;5051461;28;20025;-76
2021/07/26 00:20:10;;;;;;;2.47;2.05;;;21.90;84.20;;;;;;5054098;28;20029;-76
2021/07/26 00:22:35;;;;;;;2.65;1.75;;;21.90;84.20;;;;;;5052292;28;20028;-75
2021/07/26 00:25:01;;;;;;;5.10;2.30;;;21.90;84.30;;;;;;5053238;28;20036;-76
2021/07/26 00:27:27;;;;;;;4.00;2.15;;;21.90;84.40;;;;;;5052335;28;20029;-75
2021/07/26 00:29:52;;;;;;;4.88;2.08;;;21.80;84.30;;;;;;5051893;28;20036;-76
2021/07/26 00:32:18;;;;;;;4.90;2.30;;;21.80;84.60;;;;;;5052272;28;20029;-76
2021/07/26 00:34:43;;;;;;;4.93;2.25;;;21.80;84.70;;;;;;5051823;28;20086;-76
2021/07/26 00:37:09;;;;;;;4.30;2.10;;;21.80;84.90;;;;;;5053395;28;20065;-76
2021/07/26 00:39:35;;;;;;;3.40;2.25;;;21.80;85.00;;;;;;5053144;28;20028;-76
2021/07/26 00:42:02;;;;;;;3.25;1.95;;;21.70;85.00;;;;;;5052756;28;20041;-76
2021/07/26 00:44:30;;;;;;;3.17;1.73;;;21.80;84.90;;;;;;5052963;28;20485;-76
2021/07/26 00:46:57;;;;;;;6.78;1.92;;;21.80;85.10;;;;;;5052816;28;20108;-76
2021/07/26 00:49:24;;;;;;;3.13;2.28;;;21.80;85.20;;;;;;5053232;28;20047;-76
2021/07/26 00:51:51;;;;;;;4.95;2.13;;;21.80;84.90;;;;;;5051434;28;20487;-76
2021/07/26 00:54:20;;;;;;;3.33;2.08;;;21.80;85.10;;;;;;5051959;28;20056;-76
2021/07/26 00:56:47;;;;;;;3.45;2.00;;;21.80;85.20;;;;;;5052732;28;20511;-76
2021/07/26 00:59:14;;;;;;;3.70;2.42;;;21.80;85.20;;;;;;5051861;28;20108;-76
2021/07/26 01:01:41;;;;;;;3.72;2.30;;;21.80;85.20;;;;;;5051185;28;20032;-77
2021/07/26 01:04:07;;;;;;;2.88;2.03;;;21.70;85.30;;;;;;5052855;28;20104;-75
2021/07/26 01:06:33;;;;;;;3.70;2.22;;;21.70;85.50;;;;;;5051905;28;20356;-75
2021/07/26 01:08:59;;;;;;;7.63;2.33;;;21.70;85.50;;;;;;5051186;28;20032;-75
2021/07/26 01:11:25;;;;;;;2.60;2.00;;;21.60;85.40;;;;;;5052949;28;20021;-75
2021/07/26 01:13:50;;;;;;;7.32;2.47;;;21.60;85.50;;;;;;5050616;28;20059;-75
2021/07/26 01:16:16;;;;;;;3.03;2.15;;;21.60;85.60;;;;;;5051544;28;20029;-75
2021/07/26 01:18:42;;;;;;;3.75;1.83;;;21.60;85.50;;;;;;5052414;28;20021;-76
2021/07/26 01:21:10;;;;;;;6.05;1.95;;;21.50;85.90;;;;;;5052414;28;20025;-76
2021/07/26 01:23:41;;;;;;;4.25;2.00;;;21.50;86.10;;;;;;5051372;28;20068;-75
2021/07/26 01:26:09;;;;;;;3.35;2.05;;;21.50;86.20;;;;;;5051435;28;20033;-75
2021/07/26 01:28:36;;;;;;;4.63;2.40;;;21.40;86.10;;;;;;5051333;28;20037;-75
2021/07/26 01:31:03;;;;;;;2.90;2.00;;;21.40;86.20;;;;;;5056386;28;20083;-76
2021/07/26 01:33:29;;;;;;;5.32;2.67;;;21.40;86.20;;;;;;5056924;28;20029;-77
2021/07/26 01:35:54;;;;;;;4.47;2.33;;;21.40;86.30;;;;;;5056513;28;20051;-76
2021/07/26 01:38:21;;;;;;;3.22;2.20;;;21.40;86.40;;;;;;5055697;28;20026;-76
2021/07/26 01:40:50;;;;;;;3.65;2.28;;;21.40;86.50;;;;;;5056058;28;20466;-77
2021/07/26 01:43:17;;;;;;;3.72;2.20;;;21.30;86.40;;;;;;5055687;28;20043;-76
2021/07/26 01:45:53;;;;;;;5.75;2.25;;;21.30;86.50;;;;;;5054592;28;20033;-81
2021/07/26 01:48:31;;;;;;;3.38;2.33;;;21.30;86.70;;;;;;5056947;28;20060;-76
2021/07/26 01:51:02;;;;;;;3.20;2.17;;;21.30;86.90;;;;;;5054716;28;20029;-76
2021/07/26 01:53:29;;;;;;;5.65;2.50;;;21.20;86.90;;;;;;5055644;28;20032;-76
2021/07/26 01:55:55;;;;;;;4.45;2.10;;;21.20;87.10;;;;;;5055966;28;20025;-76
2021/07/26 01:58:21;;;;;;;3.88;2.13;;;21.20;87.20;;;;;;5055276;28;20058;-76
2021/07/26 02:00:46;;;;;;;2.60;2.00;;;21.10;87.40;;;;;;5054540;28;20029;-82
2021/07/26 02:03:12;;;;;;;5.85;2.50;;;21.10;87.60;;;;;;5054790;28;20043;-76
2021/07/26 02:05:38;;;;;;;4.93;2.13;;;21.10;87.70;;;;;;5055859;28;20108;-76
2021/07/26 02:08:03;;;;;;;3.78;2.60;;;21.10;87.80;;;;;;5054157;28;20056;-76
2021/07/26 02:10:29;;;;;;;2.65;2.15;;;21.10;88.00;;;;;;5054848;28;20021;-75
2021/07/26 02:12:57;;;;;;;5.35;2.10;;;21.10;88.00;;;;;;5055153;28;20079;-75
2021/07/26 02:15:23;;;;;;;4.93;2.45;;;21.10;88.20;;;;;;5055103;28;20031;-76
2021/07/26 02:17:49;;;;;;;4.53;2.05;;;21.10;88.40;;;;;;5054263;28;20452;-77
2021/07/26 02:20:16;;;;;;;4.82;2.65;;;21.10;88.60;;;;;;5055806;28;20520;-76
2021/07/26 02:22:42;;;;;;;5.20;2.20;;;21.10;88.80;;;;;;5054721;28;20082;-76
2021/07/26 02:25:09;;;;;;;5.97;2.72;;;21.10;88.90;;;;;;5054332;28;20028;-76
2021/07/26 02:27:34;;;;;;;5.07;2.55;;;21.00;89.10;;;;;;5054317;28;20060;-76
2021/07/26 02:30:00;;;;;;;4.45;2.78;;;21.00;89.30;;;;;;5054606;28;20067;-77
2021/07/26 02:32:26;;;;;;;3.30;2.28;;;21.00;89.40;;;;;;5055507;28;20036;-76
2021/07/26 02:34:52;;;;;;;2.83;2.33;;;21.00;89.60;;;;;;5054771;28;20025;-76
2021/07/26 02:37:17;;;;;;;4.65;2.70;;;20.90;89.60;;;;;;5053837;28;20510;-75
2021/07/26 02:39:43;;;;;;;5.25;2.78;;;20.90;89.70;;;;;;5054401;28;20378;-75
2021/07/26 02:42:08;;;;;;;4.82;2.33;;;21.00;89.90;;;;;;5052988;28;20628;-76
2021/07/26 02:44:35;;;;;;;4.03;2.38;;;20.90;89.90;;;;;;5053935;28;20041;-76
2021/07/26 02:47:01;;;;;;;5.90;3.05;;;20.90;90.00;;;;;;5055072;28;20100;-76
2021/07/26 02:49:26;;;;;;;7.20;2.70;;;20.80;90.00;;;;;;5054200;28;20025;-76
2021/07/26 02:51:52;;;;;;;4.65;2.80;;;20.80;90.00;;;;;;5055136;28;20061;-77
2021/07/26 02:54:18;;;;;;;4.80;2.33;;;20.80;90.10;;;;;;5054024;28;20039;-76
2021/07/26 02:56:43;;;;;;;5.38;2.60;;;20.80;90.00;;;;;;5055365;28;20055;-76
2021/07/26 02:59:09;;;;;;;7.93;2.67;;;20.90;90.10;;;;;;5053523;28;20025;-76
2021/07/26 03:01:37;;;;;;;6.38;2.72;;;20.80;90.30;;;;;;5054228;28;20075;-76
2021/07/26 03:04:02;;;;;;;5.20;2.42;;;20.80;90.30;;;;;;5053591;28;20128;-76
2021/07/26 03:06:29;;;;;;;5.07;2.70;;;20.80;90.20;;;;;;5055262;28;20438;-76
2021/07/26 03:08:54;;;;;;;5.55;2.45;;;20.80;90.20;;;;;;5053094;28;20029;-76
2021/07/26 03:11:20;;;;;;;4.35;2.60;;;20.80;90.20;;;;;;5054603;28;20028;-76
2021/07/26 03:13:45;;;;;;;4.05;2.40;;;20.80;90.10;;;;;;5053553;28;20460;-76
2021/07/26 03:16:13;;;;;;;5.28;2.67;;;20.70;90.20;;;;;;5053277;28;20060;-76
2021/07/26 03:18:40;;;;;;;2.53;2.20;;;20.70;90.20;;;;;;5053749;28;20470;-76
2021/07/26 03:21:06;;;;;;;3.70;2.42;;;20.70;90.20;;;;;;5054175;28;20458;-76
2021/07/26 03:23:32;;;;;;;5.38;2.80;;;20.70;90.10;;;;;;5054831;28;20032;-76
2021/07/26 03:25:58;;;;;;;4.03;2.47;;;20.70;90.30;;;;;;5054423;28;20025;-76
2021/07/26 03:28:24;;;;;;;4.45;2.53;;;20.70;90.10;;;;;;5053010;28;20481;-75
2021/07/26 03:30:49;;;;;;;4.63;2.85;;;20.70;90.20;;;;;;5053198;28;20105;-78
2021/07/26 03:33:15;;;;;;;4.55;2.10;;;20.70;90.40;;;;;;5052919;28;20029;-76
2021/07/26 03:35:41;;;;;;;4.93;2.60;;;20.70;90.50;;;;;;5052779;28;20021;-76
2021/07/26 03:38:06;;;;;;;4.72;2.85;;;20.60;90.50;;;;;;5053881;28;20525;-76
2021/07/26 03:40:33;;;;;;;4.75;2.28;;;20.60;90.60;;;;;;5053288;28;20025;-76
2021/07/26 03:43:01;;;;;;;4.25;2.28;;;20.50;90.70;;;;;;5052672;28;20032;-76
2021/07/26 03:45:27;;;;;;;4.35;2.20;;;20.50;90.80;;;;;;5053307;28;20025;-76
2021/07/26 03:47:56;;;;;;;5.25;2.58;;;20.50;90.80;;;;;;5054264;28;20029;-79
2021/07/26 03:50:22;;;;;;;3.35;2.30;;;20.50;90.90;;;;;;5053056;28;20037;-75
2021/07/26 03:52:48;;;;;;;3.88;2.47;;;20.40;90.90;;;;;;5052713;28;20021;-76
2021/07/26 03:55:19;;;;;;;3.85;2.72;;;20.40;90.90;;;;;;5052324;28;20646;-76
2021/07/26 03:57:45;;;;;;;;;;;20.40;91.00;;;;;;5053510;28;20021;-76
2021/07/26 04:00:12;;;;;;;4.25;2.50;;;20.40;91.20;;;;;;5052473;28;19958;-76
2021/07/26 04:02:39;;;;;;;4.22;2.72;;;20.40;91.00;;;;;;5052881;28;20028;-77
2021/07/26 04:05:07;;;;;;;3.05;2.40;;;20.30;91.10;;;;;;5052275;28;20120;-76
2021/07/26 04:07:36;;;;;;;4.88;2.67;;;20.30;91.10;;;;;;5052488;28;20056;-76
2021/07/26 04:10:06;;;;;;;4.80;2.42;;;20.20;91.20;;;;;;5051950;28;20095;-76
2021/07/26 04:12:33;;;;;;;3.05;2.38;;;20.30;91.20;;;;;;5051799;28;20088;-75
2021/07/26 04:14:59;;;;;;;4.18;2.40;;;20.30;91.20;;;;;;5053000;28;20082;-76
2021/07/26 04:17:25;;;;;;;3.55;2.45;;;20.30;91.20;;;;;;5052668;28;20032;-76
2021/07/26 04:19:50;;;;;;;4.45;3.10;;;20.20;91.20;;;;;;5052358;28;20457;-76
2021/07/26 04:22:16;;;;;;;5.07;2.70;;;20.20;91.30;;;;;;5052014;28;20032;-76
2021/07/26 04:24:42;;;;;;;4.82;2.58;;;20.20;91.40;;;;;;5053634;28;20112;-76
2021/07/26 04:27:08;;;;;;;4.78;2.75;;;20.20;91.40;;;;;;5052837;28;20553;-76
2021/07/26 04:29:33;;;;;;;8.45;2.80;;;20.20;91.50;;;;;;5052296;28;20033;-76
2021/07/26 04:31:59;;;;;;;4.68;2.58;;;20.20;91.40;;;;;;5052661;28;20103;-76
2021/07/26 04:34:25;;;;;;;4.28;2.40;;;20.30;91.40;;;;;;5051816;28;20037;-75
2021/07/26 04:36:50;;;;;;;4.50;2.92;;;20.20;91.50;;;;;;5052063;28;20029;-76
2021/07/26 04:39:16;;;;;;;4.45;2.53;;;20.20;91.50;;;;;;5052113;28;20528;-77
2021/07/26 04:41:42;;;;;;;5.68;2.70;;;20.20;91.50;;;;;;5052122;28;20017;-77
2021/07/26 04:44:07;;;;;;;6.45;3.08;;;20.20;91.60;;;;;;5051145;28;20040;-77
2021/07/26 04:46:33;;;;;;;4.55;2.72;;;20.20;91.60;;;;;;5052081;28;20115;-77
2021/07/26 04:48:58;;;;;;;5.80;2.72;;;20.20;91.70;;;;;;5051579;28;20028;-77
2021/07/26 04:51:24;;;;;;;5.18;2.65;;;20.20;91.70;;;;;;5052138;28;20110;-76
2021/07/26 04:53:49;;;;;;;3.75;2.38;;;20.20;91.70;;;;;;5051825;28;20037;-76
2021/07/26 04:56:15;;;;;;;5.70;2.90;;;20.10;91.90;;;;;;5051205;28;20021;-76
2021/07/26 04:58:41;;;;;;;3.60;2.55;;;20.10;91.90;;;;;;5051722;28;20481;-76
2021/07/26 05:01:07;;;;;;;6.35;2.70;;;20.20;91.90;;;;;;5052490;28;20025;-77
2021/07/26 05:03:32;;;;;;;3.72;2.38;;;20.20;91.90;;;;;;5051509;28;20029;-76
2021/07/26 05:05:58;;;;;;;4.30;2.30;;;20.30;91.70;;;;;;5050557;28;20032;-78
2021/07/26 05:08:24;;;;;;;4.55;2.70;;;20.30;91.70;;;;;;5053024;28;20033;-76
2021/07/26 05:10:49;;;;;;;2.50;2.22;;;20.40;91.60;;;;;;5051553;28;20025;-76
2021/07/26 05:13:15;;;;;;;4.47;2.78;;;20.30;91.60;;;;;;5052320;28;20085;-77
2021/07/26 05:15:42;;;;;;;5.47;2.67;;;20.30;91.70;;;;;;5051431;28;20421;-76
2021/07/26 05:18:08;;;;;;;3.80;2.72;;;20.40;91.60;;;;;;5052404;28;20037;-76
2021/07/26 05:20:34;;;;;;;4.22;2.83;;;20.50;91.50;;;;;;5051749;28;20108;-76
2021/07/26 05:22:59;;;;;;;7.47;2.80;;;20.50;91.40;;;;;;5051164;28;20062;-77
2021/07/26 05:25:25;;;;;;;4.68;2.58;;;20.50;91.30;;;;;;5053172;28;20025;-76
2021/07/26 05:27:51;;;;;;;6.13;3.60;;;20.50;91.40;;;;;;5051634;28;20060;-76
2021/07/26 05:30:16;;;;;;;12.45;7.38;;;20.40;91.40;;;;;;5049892;28;20282;-76
2021/07/26 05:32:42;;;;;;;6.78;3.42;;;20.40;91.40;;;;;;5051219;28;20124;-77
2021/07/26 05:35:08;;;;;;;5.03;3.03;;;20.40;91.50;;;;;;5050561;28;20060;-77
2021/07/26 05:37:34;;;;;;;3.38;2.53;;;20.50;91.40;;;;;;5051112;28;20032;-76
2021/07/26 05:40:00;;;;;;;6.80;2.95;;;20.40;91.30;;;;;;5050725;28;20488;-82
2021/07/26 05:42:26;;;;;;;6.85;2.92;;;20.50;91.40;;;;;;5050921;28;20107;-77
2021/07/26 05:44:53;;;;;;;4.78;2.92;;;20.50;91.30;;;;;;5052047;28;20504;-77
2021/07/26 05:47:19;;;;;;;6.32;3.13;;;20.50;91.30;;;;;;5050488;28;20171;-77
2021/07/26 05:49:44;;;;;;;6.40;2.85;;;20.40;91.50;;;;;;5050552;28;20477;-76
2021/07/26 05:52:10;;;;;;;5.72;3.08;;;20.40;91.60;;;;;;5049800;28;20458;-77
2021/07/26 05:54:36;;;;;;;7.75;3.03;;;20.50;91.60;;;;;;5051737;28;20126;-76
2021/07/26 05:57:08;;;;;;;5.50;3.15;;;20.50;91.60;;;;;;5050109;28;20029;-80
2021/07/26 05:59:33;;;;;;;4.85;2.70;;;20.40;91.60;;;;;;5049922;28;20049;-77
2021/07/26 06:01:59;;;;;;;7.88;2.75;;;20.50;91.60;;;;;;5050791;28;20060;-83
2021/07/26 06:04:25;;;;;;;5.32;3.00;;;20.50;91.60;;;;;;5051386;28;20466;-76
2021/07/26 06:06:52;;;;;;;4.80;3.03;;;20.50;91.60;;;;;;5050691;28;20432;-77
2021/07/26 06:09:18;;;;;;;4.10;2.55;;;20.50;91.60;;;;;;5049643;28;20094;-78
2021/07/26 06:11:45;;;;;;;7.78;3.17;;;20.50;91.60;;;;;;5049532;28;20086;-77
2021/07/26 06:14:12;;;;;;;24.02;13.75;;;20.40;91.60;;;;;;5049892;28;20079;-76
2021/07/26 06:16:48;;;;;;;5.13;3.97;;;20.40;91.50;;;;;;5052573;28;20028;-75
2021/07/26 06:19:16;;;;;;;6.97;3.10;;;20.50;91.60;;;;;;5054160;28;20056;-75
2021/07/26 06:21:53;;;;;;;7.10;3.35;;;20.60;91.60;;;;;;5056269;28;20032;-77
2021/07/26 06:24:20;;;;;;;4.93;2.90;;;20.50;91.40;;;;;;5053467;28;20112;-76
2021/07/26 06:26:46;;;;;;;4.07;3.20;;;20.50;91.30;;;;;;5054480;28;20032;-76
2021/07/26 06:29:12;;;;;;;4.35;3.20;;;20.60;91.20;;;;;;5054402;28;20029;-80
2021/07/26 06:31:38;;;;;;;4.22;2.58;;;20.50;91.30;;;;;;5055218;28;20472;-82
2021/07/26 06:34:05;;;;;;;7.05;2.70;;;20.50;91.30;;;;;;5055484;28;20039;-79
2021/07/26 06:36:31;;;;;;;5.22;2.55;;;20.60;91.30;;;;;;5054390;28;20025;-78
2021/07/26 06:38:56;;;;;;;4.13;2.75;;;20.60;91.10;;;;;;5054785;28;20025;-76
2021/07/26 06:41:22;;;;;;;4.07;2.70;;;20.70;90.80;;;;;;5052862;28;20032;-76
2021/07/26 06:43:50;;;;;;;5.68;2.85;;;20.70;90.80;;;;;;5053142;28;20025;-76
2021/07/26 06:46:16;;;;;;;5.22;2.95;;;20.70;90.60;;;;;;5052764;28;20025;-76
2021/07/26 06:48:42;;;;;;;4.20;2.42;;;20.70;90.80;;;;;;5054753;28;20021;-76
2021/07/26 06:51:07;;;;;;;3.45;2.40;;;20.70;90.40;;;;;;5053005;28;20386;-76
2021/07/26 06:53:33;;;;;;;3.15;2.30;;;20.70;90.50;;;;;;5053564;28;20064;-80
2021/07/26 06:56:07;;;;;;;5.28;3.03;;;20.70;90.50;;;;;;5053039;28;20402;-78
2021/07/26 06:58:33;;;;;;;4.95;2.67;;;20.80;90.50;;;;;;5055190;28;20024;-77
2021/07/26 07:01:14;;;;;;;5.72;2.63;;;20.80;90.50;;;;;;5052950;28;20427;-78
2021/07/26 07:03:41;;;;;;;4.70;2.40;;;20.80;90.30;;;;;;5054679;28;20033;-77
2021/07/26 07:06:09;;;;;;;3.35;2.47;;;20.90;90.20;;;;;;5053042;28;20028;-77
2021/07/26 07:08:39;;;;;;;5.00;2.45;;;20.90;90.30;;;;;;5052998;28;20025;-77
2021/07/26 07:11:13;;;;;;;3.97;2.50;;;21.00;90.30;;;;;;5052256;28;20104;-77
2021/07/26 07:13:41;;;;;;;4.15;2.40;;;21.00;90.10;;;;;;5050072;28;20516;-77
2021/07/26 07:16:18;;;;;;;4.13;2.45;;;21.10;90.00;;;;;;5052724;28;20041;-76
2021/07/26 07:18:45;;;;;;;10.38;3.00;;;21.10;89.70;;;;;;5047828;28;20017;-78
2021/07/26 07:21:18;;;;;;;4.18;2.38;;;21.20;88.70;;;;;;5054051;28;20032;-78
2021/07/26 07:23:45;;;;;;;4.13;2.13;;;21.20;88.40;;;;;;5050918;28;20163;-78
2021/07/26 07:26:11;;;;;;;4.65;2.63;;;21.20;88.70;;;;;;5052846;28;20048;-77
2021/07/26 07:28:37;;;;;;;3.47;2.50;;;21.30;87.60;;;;;;5053192;28;20033;-77
2021/07/26 07:31:03;;;;;;;3.00;2.45;;;21.40;87.40;;;;;;5052661;28;20059;-78
2021/07/26 07:33:28;;;;;;;3.33;2.40;;;21.40;87.10;;;;;;5053225;28;20033;-77
2021/07/26 07:35:54;;;;;;;4.05;2.10;;;21.50;86.60;;;;;;5052918;28;20025;-76
2021/07/26 07:38:20;;;;;;;3.13;2.30;;;21.50;84.10;;;;;;5052539;28;20469;-81
2021/07/26 07:40:46;;;;;;;3.97;2.03;;;21.50;84.10;;;;;;5053105;28;20051;-83
2021/07/26 07:43:11;;;;;;;4.28;2.10;;;21.50;84.30;;;;;;5050743;28;20033;-75
2021/07/26 07:45:37;;;;;;;4.40;2.42;;;21.50;83.20;;;;;;5052619;28;20531;-76
2021/07/26 07:48:03;;;;;;;4.10;2.42;;;21.60;82.70;;;;;;5052225;28;20083;-78
2021/07/26 07:50:29;;;;;;;3.75;2.38;;;21.60;82.40;;;;;;5052717;28;20082;-79
2021/07/26 07:52:55;;;;;;;4.53;2.65;;;21.70;82.40;;;;;;5052694;28;20497;-80
2021/07/26 07:55:21;;;;;;;5.65;2.22;;;21.70;82.70;;;;;;5053135;28;20075;-79
2021/07/26 07:57:51;;;;;;;3.45;2.15;;;21.80;82.30;;;;;;5052694;28;20500;-80
2021/07/26 08:00:18;;;;;;;3.97;2.13;;;21.90;82.10;;;;;;5051798;28;20025;-78
2021/07/26 08:02:44;;;;;;;4.45;2.30;;;22.00;81.70;;;;;;5052464;28;20028;-79
2021/07/26 08:05:10;;;;;;;4.50;2.10;;;22.10;81.60;;;;;;5051536;28;20029;-78
2021/07/26 08:07:35;;;;;;;3.25;2.03;;;22.10;81.60;;;;;;5051271;28;20029;-78
2021/07/26 08:10:03;;;;;;;3.67;2.28;;;22.20;80.00;;;;;;5051653;28;20025;-81
2021/07/26 08:12:29;;;;;;;5.13;2.10;;;22.20;79.30;;;;;;5052559;28;20511;-79
2021/07/26 08:14:54;;;;;;;4.93;2.28;;;22.30;80.20;;;;;;5069284;28;20102;-78
2021/07/26 08:17:20;;;;;;;3.25;2.00;;;22.40;79.80;;;;;;5051550;28;20458;-80
2021/07/26 08:19:45;;;;;;;4.38;2.05;;;22.50;78.10;;;;;;5052429;28;20101;-78
2021/07/26 08:22:11;;;;;;;3.75;2.17;;;22.70;78.70;;;;;;5052053;28;20078;-77
2021/07/26 08:24:37;;;;;;;3.53;1.98;;;22.80;78.30;;;;;;5052420;28;20075;-78
2021/07/26 08:27:02;;;;;;;2.40;1.88;;;23.00;77.30;;;;;;5051772;28;20108;-81
2021/07/26 08:29:28;;;;;;;9.70;2.20;;;23.00;77.20;;;;;;5053246;28;20032;-77
2021/07/26 08:31:54;;;;;;;5.80;2.60;;;23.10;77.50;;;;;;5052084;28;20123;-78
2021/07/26 08:34:19;;;;;;;5.85;2.22;;;23.10;77.20;;;;;;5052916;28;20025;-77
2021/07/26 08:36:45;;;;;;;5.03;2.22;;;23.10;76.50;;;;;;5052062;28;20079;-78
2021/07/26 08:39:11;;;;;;;4.90;2.05;;;23.10;76.30;;;;;;5050076;28;20021;-79
2021/07/26 08:41:36;;;;;;;3.95;2.40;;;23.20;76.40;;;;;;5052424;28;20386;-78
2021/07/26 08:44:02;;;;;;;2.97;2.03;;;23.30;76.70;;;;;;5052061;28;20512;-86
2021/07/26 08:46:29;;;;;;;4.28;2.20;;;23.30;76.70;;;;;;5051636;28;20029;-78
2021/07/26 08:48:56;;;;;;;4.97;2.58;;;23.30;76.90;;;;;;5052649;28;20051;-78
2021/07/26 08:51:24;;;;;;;6.25;2.25;;;23.40;77.60;;;;;;5051891;28;20034;-77
2021/07/26 08:53:51;;;;;;;4.68;2.05;;;23.40;77.40;;;;;;5051922;28;20033;-77
2021/07/26 08:56:17;;;;;;;4.13;2.03;;;23.40;78.10;;;;;;5051525;28;20047;-78
2021/07/26 08:58:43;;;;;;;5.05;2.10;;;23.40;78.50;;;;;;5051704;28;20107;-83
2021/07/26 09:01:13;;;;;;;7.70;2.55;;;23.40;77.00;;;;;;5052888;28;20099;-78
2021/07/26 09:03:39;;;;;;;4.05;2.35;;;23.40;77.60;;;;;;5051117;28;20478;-78
2021/07/26 09:06:04;;;;;;;2.58;1.83;;;23.40;77.00;;;;;;5051290;28;20029;-79
2021/07/26 09:08:32;;;;;;;7.40;2.40;;;23.40;76.90;;;;;;5053120;28;20079;-79
2021/07/26 09:11:01;;;;;;;4.15;2.15;;;23.40;76.90;;;;;;5051931;28;20120;-82
2021/07/26 09:13:39;;;;;;;6.45;1.85;;;23.40;77.60;;;;;;5051818;28;20494;-80
2021/07/26 09:16:21;;;;;;;6.03;2.20;;;23.50;76.70;;;;;;5051521;28;20033;-78
2021/07/26 09:19:06;;;;;;;3.30;2.10;;;23.40;77.60;;;;;;5051366;28;20025;-78
2021/07/26 09:21:52;;;;;;;3.33;2.30;;;23.40;77.50;;;;;;5052470;28;20017;-76
2021/07/26 09:24:26;;;;;;;4.63;2.05;;;23.50;77.50;;;;;;5037668;28;20215;-80
2021/07/26 09:26:52;;;;;;;3.38;1.95;;;23.50;76.20;;;;;;5049692;28;20029;-82
2021/07/26 09:29:29;;;;;;;4.32;2.20;;;23.50;76.80;;;;;;5051047;28;20579;-78
2021/07/26 09:32:00;;;;;;;4.22;2.33;;;23.60;76.10;;;;;;5051664;28;20029;-79
2021/07/26 09:34:25;;;;;;;3.15;2.05;;;23.60;75.10;;;;;;5051779;28;20040;-77
2021/07/26 09:36:51;;;;;;;4.10;2.33;;;23.70;74.20;;;;;;5050902;28;20037;-78
2021/07/26 09:39:27;;;;;;;2.40;1.83;;;23.70;72.90;;;;;;5050624;28;20055;-78
2021/07/26 09:41:55;;;;;;;3.88;1.92;;;23.70;71.50;;;;;;5050983;28;20497;-78
2021/07/26 09:44:25;;;;;;;4.03;2.13;;;23.80;72.00;;;;;;5050619;28;20033;-78
2021/07/26 09:46:51;;;;;;;3.63;1.98;;;23.80;72.10;;;;;;5051074;28;20029;-79
2021/07/26 09:49:18;;;;;;;3.05;2.05;;;23.90;71.30;;;;;;5051877;28;20029;-78
2021/07/26 09:52:07;;;;;;;4.10;2.00;;;23.90;69.50;;;;;;5054395;28;20120;-78
2021/07/26 09:54:40;;;;;;;6.30;2.38;;;24.00;69.50;;;;;;5055685;28;20072;-84
2021/07/26 09:57:19;;;;;;;2.10;1.88;;;24.00;71.30;;;;;;5071861;28;20029;-79
2021/07/26 09:59:46;;;;;;;5.70;2.00;;;24.10;71.40;;;;;;5054860;28;20424;-78
2021/07/26 10:02:17;;;;;;;4.35;2.05;;;24.20;70.70;;;;;;5055385;28;20025;-78
2021/07/26 10:04:44;;;;;;;4.38;2.00;;;24.20;70.40;;;;;;5054964;28;20040;-79
2021/07/26 10:07:14;;;;;;;3.88;1.95;;;24.10;70.50;;;;;;5055539;28;20064;-78
2021/07/26 10:09:44;;;;;;;2.33;1.80;;;24.10;70.20;;;;;;5056326;28;20099;-81
2021/07/26 10:12:13;;;;;;;3.40;2.13;;;24.10;70.10;;;;;;5055286;28;20049;-80
2021/07/26 10:14:41;;;;;;;4.25;2.00;;;24.10;70.40;;;;;;5055331;28;20025;-81
2021/07/26 10:17:08;;;;;;;2.50;1.70;;;24.10;69.70;;;;;;5053950;28;20057;-80
2021/07/26 10:19:34;;;;;;;3.95;2.00;;;24.10;70.00;;;;;;5054981;28;20458;-80
2021/07/26 10:22:00;;;;;;;2.30;1.90;;;24.00;69.00;;;;;;5054350;28;20044;-81
2021/07/26 10:24:47;;;;;;;3.78;2.13;;;24.00;69.50;;;;;;5054454;28;20025;-79
2021/07/26 10:27:19;;;;;;;6.32;1.90;;;24.00;68.90;;;;;;5066047;28;20025;-80
2021/07/26 10:29:59;;;;;;;3.60;1.73;;;24.10;69.30;;;;;;5055467;28;20049;-80
2021/07/26 10:32:31;;;;;;;2.33;1.95;;;24.10;70.00;;;;;;5053313;28;20136;-77
2021/07/26 10:34:57;;;;;;;3.35;1.90;;;24.20;70.40;;;;;;5053440;28;20033;-79
2021/07/26 10:37:52;;;;;;;4.32;2.03;;;24.30;69.20;;;;;;5054273;28;20028;-80
2021/07/26 10:40:22;;;;;;;2.72;1.85;;;24.30;68.70;;;;;;5068175;28;20216;-80
2021/07/26 10:42:49;;;;;;;4.25;1.90;;;24.30;68.20;;;;;;5053730;28;20040;-79
2021/07/26 10:45:33;;;;;;;3.58;1.60;;;24.40;67.80;;;;;;5053717;28;20037;-79
2021/07/26 10:48:21;;;;;;;2.08;1.65;;;24.50;67.80;;;;;;5053726;28;20021;-87
2021/07/26 10:50:51;;;;;;;3.33;2.03;;;24.60;67.00;;;;;;5054028;28;20063;-79
2021/07/26 10:53:32;;;;;;;6.25;2.13;;;24.80;66.40;;;;;;5053665;28;20033;-79
2021/07/26 10:56:09;;;;;;;3.13;1.85;;;25.00;66.20;;;;;;5054329;28;20029;-79
2021/07/26 10:58:38;;;;;;;2.47;1.90;;;25.10;64.90;;;;;;5053465;28;20037;-77
2021/07/26 11:01:22;;;;;;;4.93;1.85;;;25.20;64.40;;;;;;5054462;28;20029;-83
2021/07/26 11:03:49;;;;;;;2.67;1.58;;;25.40;64.50;;;;;;5052734;28;20505;-78
2021/07/26 11:06:39;;;;;;;4.25;2.03;;;25.40;65.20;;;;;;5054087;28;20029;-78
2021/07/26 11:09:35;;;;;;;2.70;2.00;;;25.60;63.70;;;;;;5053017;28;20040;-79
2021/07/26 11:12:05;;;;;;;2.72;1.80;;;25.50;61.90;;;;;;5053013;28;20039;-78
2021/07/26 11:14:31;;;;;;;3.10;1.77;;;25.60;63.00;;;;;;5052707;28;20128;-77
2021/07/26 11:17:00;;;;;;;3.78;1.73;;;25.70;63.10;;;;;;5052546;28;20452;-78
2021/07/26 11:19:41;;;;;;;3.25;2.15;;;25.60;63.30;;;;;;5050132;28;20025;-78
2021/07/26 11:22:16;;;;;;;3.15;1.90;;;25.60;64.10;;;;;;5036804;28;20473;-78
2021/07/26 11:24:48;;;;;;;3.65;1.90;;;25.50;63.60;;;;;;5053155;28;20028;-78
2021/07/26 11:27:16;;;;;;;3.53;2.00;;;25.60;64.20;;;;;;5051948;28;20450;-78
2021/07/26 11:29:53;;;;;;;4.25;2.20;;;25.50;64.00;;;;;;5052906;28;20025;-80
2021/07/26 11:32:23;;;;;;;4.65;1.88;;;25.50;64.70;;;;;;5053470;28;20472;-78
2021/07/26 11:34:53;;;;;;;3.85;2.10;;;25.50;64.20;;;;;;5052489;28;20041;-78
2021/07/26 11:37:20;;;;;;;3.70;2.00;;;25.40;64.70;;;;;;5050081;28;20394;-79
2021/07/26 11:39:57;;;;;;;2.28;1.92;;;25.50;65.40;;;;;;5051751;28;20025;-79
2021/07/26 11:42:28;;;;;;;6.07;2.30;;;25.50;64.00;;;;;;5053709;28;20485;-78
2021/07/26 11:44:54;;;;;;;5.18;2.25;;;25.60;64.70;;;;;;5052823;28;20504;-78
2021/07/26 11:47:32;;;;;;;5.63;2.25;;;25.70;64.30;;;;;;5052066;28;20116;-79
2021/07/26 11:49:59;;;;;;;3.78;1.70;;;25.90;63.40;;;;;;5052476;28;20071;-81
2021/07/26 11:52:24;;;;;;;3.17;2.17;;;26.10;63.00;;;;;;5053412;28;20101;-80
2021/07/26 11:54:50;;;;;;;4.22;2.10;;;26.20;63.60;;;;;;5053670;28;20037;-78
2021/07/26 11:57:16;;;;;;;4.10;1.92;;;26.30;63.20;;;;;;5053100;28;20107;-78
2021/07/26 11:59:55;;;;;;;4.18;2.20;;;26.30;63.00;;;;;;5053014;28;20017;-79
2021/07/26 12:02:30;;;;;;;3.42;2.50;;;26.20;62.50;;;;;;5051371;28;20090;-79
2021/07/26 12:05:02;;;;;;;2.92;2.25;;;26.20;63.80;;;;;;5053983;28;20036;-78
2021/07/26 12:07:39;;;;;;;3.30;2.33;;;26.20;64.30;;;;;;5054302;28;20032;-78
2021/07/26 12:10:05;;;;;;;7.28;2.40;;;26.00;63.70;;;;;;5051354;28;20032;-78
2021/07/26 12:12:36;;;;;;;4.13;2.20;;;25.90;64.80;;;;;;5051819;28;20056;-77
2021/07/26 12:15:22;;;;;;;3.33;2.00;;;25.70;65.40;;;;;;5049188;28;20045;-80
2021/07/26 12:18:09;;;;;;;4.95;2.60;;;25.50;65.70;;;;;;5053637;28;20020;-78
2021/07/26 12:20:39;;;;;;;3.47;2.22;;;25.40;65.20;;;;;;5051986;28;20051;-78
2021/07/26 12:23:17;;;;;;;3.83;2.33;;;25.30;65.90;;;;;;5050751;28;20041;-78
2021/07/26 12:25:43;;;;;;;3.15;2.25;;;25.20;64.40;;;;;;5048048;28;20266;-81
2021/07/26 12:28:09;;;;;;;2.80;1.90;;;25.10;65.50;;;;;;5049826;28;20021;-82
2021/07/26 12:30:36;;;;;;;3.42;1.95;;;25.00;69.60;;;;;;5051143;28;20393;-79
2021/07/26 12:33:02;;;;;;;2.83;2.00;;;25.00;68.20;;;;;;5051014;28;20058;-86
2021/07/26 12:35:28;;;;;;;3.20;1.80;;;24.90;68.40;;;;;;5051781;28;20031;-77
2021/07/26 12:38:20;;;;;;;3.28;2.00;;;24.90;70.00;;;;;;5052523;28;20096;-78
2021/07/26 12:41:07;;;;;;;;;;;24.80;70.10;;;;;;5052359;28;20032;-81
2021/07/26 12:43:33;;;;;;;3.05;1.73;;;24.80;70.20;;;;;;5050541;28;19958;-81
2021/07/26 12:46:03;;;;;;;2.83;1.70;;;24.80;70.40;;;;;;5053462;28;20017;-80
2021/07/26 12:48:31;;;;;;;5.13;1.77;;;24.80;70.70;;;;;;5051896;28;20032;-80
2021/07/26 12:50:58;;;;;;;3.63;1.75;;;24.80;70.80;;;;;;5051936;28;20266;-79
2021/07/26 12:53:25;;;;;;;2.20;1.90;;;24.80;70.80;;;;;;5051697;28;20044;-82